Detall de PIREP

Printer-friendly versionPDF version

[2014/10/22 09:38:00]
Flight IATA:CT1005
Pilot Number:011
Company ICAO:CAT
Aircraft Type:B738/F
PAX:160
Departing Airport: LZKZ
Destination Airport: LJLJ
Alternate Airport:LDZA
Online: VATSIM
Route:KEKED UQ581 TPS UM986 ZAG Y128 MAGAM
Flight Level:F290
No Slew and time accel
No pause
Crash detect
Detect pilot in Cockpit between each 30 and 45 minutes
09:38 Zero fuel Weight: 135990 Lbs, Fuel Weight: 13807 Lbs
09:38 VATSIM:LZKZ 220930Z 02010KT 340V040 5000 -RA BKN008 OVC013 11/10 Q1000 NOSIG
09:38 VATSIM:LJLJ 220930Z 18006KT 140V220 9999 FEW007 BKN015 07/04 Q1009 NOSIG
09:42 Parking Brakes off
09:59 Take-off
09:59 Take off Weight: 148491 Lbs
09:59 Wind: 016º @ 010 Knots Heading: 013º
09:59 POS N48º 39´ 49´´ E021º 14´ 29´´
09:59 Flaps:5 at 172 Knots
09:59 Gear Up: 172 Knots
10:00 Flaps:4 at 230 Knots
10:00 Flaps:3 at 232 Knots
10:00 Flaps:2 at 232 Knots
10:00 Flaps:1 at 230 Knots
10:00 Flaps:0 at 230 Knots
10:12 TOC
10:12 Fuel Weight: 9671 Lb
10:14 Wind:306º@060 Knots Heading: 225º Ground Speed: 441 Knots Altitude 28667 ft
10:29 Wind:301º@055 Knots Heading: 234º Ground Speed: 427 Knots Altitude 28772 ft
10:39 TOD
10:39 Fuel Weight: 7201 Lb
10:44 Wind:250º@033 Knots Heading: 278º Ground Speed: 367 Knots Altitude 21243 ft
10:54 Flaps:1 at 212 Knots
10:54 Flaps:2 at 211 Knots
10:54 Flaps:3 at 206 Knots
10:54 Flaps:4 at 205 Knots
10:54 Flaps:5 at 200 Knots
10:56 Flaps:6 at 203 Knots
10:56 Gear Down: 203 Knots
10:57 Flaps:7 at 157 Knots
10:57 Flaps:8 at 152 Knots
10:59 Wind:209º@003 Knots Heading: 300º Ground Speed: 141 Knots Altitude 1820 ft
10:59 TouchDown:Rate -311 ft/min Speed: 121 Knots
11:00 VATSIM:LJLJ 221030Z 16003KT 070V250 9999 FEW012 BKN018 10/04 Q1008 WS ALL RWY NOSIG
11:00 Land
11:00 Wind:219º@003 Knots
11:00 Heading: 305º
11:00 Flight Duration: 01:01
11:00 Landing Weight: 142153 Lbs
11:00 POS N46º 13´ 28´´ E014º 27´ 21´´
11:01 Parking brakes on
11:01 Block to Block Duration: 01:19
11:01 Final Fuel: 6040 Lbls
11:01 Spent Fuel: 7766 Lbls
11:01 Flight Length: 265 NM
11:01 TOD Land Length: 105 NM

Exportar CSV

Powered by Drupal - Modified by Danger4k